Seligman, Missouri
Current Conditions -  °F | °C
As of 12:57 PM on Sunday 23 Nov 2014 (Local Time) from KROG Reporting Station
Overcast Overcast  
Wind Chill: 63°   Ceiling: 2100
Heat Index: 63°   Visibility: 10mi
Dew Point: 54°   Wind: 10mph
Humidity: 72%   Direction: 170°S
Pressure: 29.36"   Gusts: NA
Location:  36.52°N, 93.94°W
Report Text: KROG 231857Z 17009KT 10SM OVC021 17/12 A2936 RMK AO2 SLP935 T01720122
Loading
Personal Weather Stations






























Interactive Weather Map New forecast layout! Learn more

10-Day Weather Forecast

Advertisements
Track Severe Weather on mobile